This is the latest recevied weather packets stored in our database for station/object WX6HNX-12. If no packets are shown the sender has not sent any weather packets the latest 10 day(s).
| Time | Temp. | Humidity | Pressure | Rain* | Wind** | Luminosity | Snow |
|---|---|---|---|---|---|---|---|
| 1777732733 | 20.56° C | 60% | 1011.7 hPa | 0 mm | - | - | - |
| 1777732432 | 19.44° C | 64% | 1011.8 hPa | 0 mm | - | - | - |
| 1777732132 | 18.33° C | 66% | 1011.8 hPa | 0 mm | - | - | - |
| 1777731832 | 17.78° C | 67% | 1011.8 hPa | 0 mm | - | - | - |
| 1777731531 | 16.67° C | 68% | 1011.8 hPa | 0 mm | - | - | - |
| 1777731232 | 16.11° C | 69% | 1011.8 hPa | 0 mm | - | - | - |
| 1777730931 | 15.56° C | 70% | 1011.8 hPa | 0 mm | - | - | - |
| 1777730631 | 15.56° C | 70% | 1011.7 hPa | 0 mm | - | - | - |
| 1777730333 | 15° C | 70% | 1011.7 hPa | 0 mm | - | - | - |
| 1777730031 | 15° C | 68% | 1011.7 hPa | 0 mm | - | - | - |
| 1777729732 | 15° C | 68% | 1011.5 hPa | 0 mm | - | - | - |
| 1777729434 | 15° C | 68% | 1011.5 hPa | 0 mm | - | - | - |
| 1777728910 | 14.44° C | 70% | 1011.4 hPa | 0 mm | - | - | - |
| 1777728610 | 14.44° C | 69% | 1011.4 hPa | 0 mm | - | - | - |
| 1777728311 | 14.44° C | 67% | 1011.3 hPa | 0 mm | - | - | - |
| 1777728010 | 14.44° C | 68% | 1011.2 hPa | 0 mm | - | - | - |
| 1777727710 | 14.44° C | 70% | 1011.2 hPa | 0 mm | - | - | - |
| 1777727110 | 13.89° C | 67% | 1011.2 hPa | 0 mm | - | - | - |
| 1777726799 | 13.89° C | 67% | 1011.2 hPa | 0 mm | - | - | - |
| 1777726498 | 13.89° C | 67% | 1011.2 hPa | 0 mm | - | - | - |
| 1777726198 | 13.89° C | 67% | 1011.2 hPa | 0 mm | - | - | - |
| 1777725896 | 13.89° C | 67% | 1011.2 hPa | 0 mm | - | - | - |
| 1777725597 | 13.33° C | 67% | 1011.2 hPa | 0 mm | - | - | - |
| 1777725296 | 13.33° C | 67% | 1011.1 hPa | 0 mm | - | - | - |
| 1777724791 | 13.33° C | 66% | 1011.1 hPa | 0 mm | - | - | - |
* Rain latest hour (hover to see other rain measurements)
** Current wind speed in m/s (hover to see current wind gust speed)